createdAt,value
2022-08-17T00:01:22.508Z,83.90
2022-08-17T00:03:53.437Z,83.60
2022-08-17T00:06:21.585Z,83.20
2022-08-17T00:08:56.010Z,83.00
2022-08-17T00:11:24.470Z,83.00
2022-08-17T00:13:52.597Z,82.80
2022-08-17T00:16:55.525Z,83.00
2022-08-17T00:19:12.604Z,82.90
2022-08-17T00:21:57.922Z,82.70
2022-08-17T00:24:28.428Z,83.00
2022-08-17T00:26:55.269Z,82.80
2022-08-17T00:29:21.919Z,83.20
2022-08-17T00:31:49.123Z,82.90
2022-08-17T00:34:15.724Z,82.70
2022-08-17T00:36:42.287Z,82.70
2022-08-17T00:39:08.845Z,82.70
2022-08-17T00:41:35.826Z,82.80
2022-08-17T00:44:03.819Z,82.80
2022-08-17T00:46:36.329Z,83.00
2022-08-17T00:49:03.845Z,82.80
2022-08-17T00:51:38.420Z,82.90
2022-08-17T00:54:13.157Z,82.40
2022-08-17T00:56:44.705Z,82.30
2022-08-17T00:59:14.135Z,82.80
2022-08-17T01:01:41.198Z,83.10
2022-08-17T01:04:08.438Z,83.00
2022-08-17T01:06:35.125Z,83.30
2022-08-17T01:09:03.399Z,83.10
2022-08-17T01:11:30.587Z,83.00
2022-08-17T01:13:57.465Z,83.20
2022-08-17T01:16:26.171Z,83.10
2022-08-17T01:18:54.802Z,83.20
2022-08-17T01:21:26.650Z,83.40
2022-08-17T01:23:53.392Z,83.40
2022-08-17T01:26:20.285Z,83.20
2022-08-17T01:28:54.509Z,83.30
2022-08-17T01:31:23.597Z,83.60
2022-08-17T01:33:50.244Z,83.60
2022-08-17T01:36:17.012Z,83.50
2022-08-17T01:38:43.582Z,83.30
2022-08-17T01:41:12.686Z,83.40
2022-08-17T01:43:44.842Z,83.50
2022-08-17T01:46:14.678Z,83.70
2022-08-17T01:48:42.933Z,83.80
2022-08-17T01:51:09.604Z,83.40
2022-08-17T01:53:38.217Z,83.60
2022-08-17T01:56:09.702Z,83.60
2022-08-17T01:58:36.927Z,83.90
2022-08-17T02:01:04.998Z,84.00
2022-08-17T02:03:31.962Z,83.90
2022-08-17T02:05:58.566Z,83.80
2022-08-17T02:08:38.923Z,83.80
2022-08-17T02:11:11.952Z,83.80
2022-08-17T02:13:38.859Z,83.20
2022-08-17T02:16:05.810Z,83.20
2022-08-17T02:18:32.434Z,83.30
2022-08-17T02:20:59.516Z,83.40
2022-08-17T02:23:27.669Z,83.50
2022-08-17T02:25:55.942Z,83.20
2022-08-17T02:28:22.585Z,83.20
2022-08-17T02:30:59.829Z,83.40
2022-08-17T02:33:42.988Z,83.10
2022-08-17T02:36:11.310Z,82.90
2022-08-17T02:38:38.870Z,83.70
2022-08-17T02:41:05.562Z,82.90
2022-08-17T02:43:32.127Z,83.20
2022-08-17T02:45:58.889Z,83.00
2022-08-17T02:48:31.009Z,82.80
2022-08-17T02:50:58.811Z,83.00
2022-08-17T02:53:25.766Z,82.50
2022-08-17T02:55:52.800Z,82.80
2022-08-17T02:58:34.726Z,83.00
2022-08-17T03:01:03.289Z,83.00
2022-08-17T03:03:30.185Z,82.80
2022-08-17T03:05:56.892Z,83.30
2022-08-17T03:08:23.993Z,83.00
2022-08-17T03:10:50.672Z,82.50
2022-08-17T03:13:17.919Z,82.00
2022-08-17T03:15:46.110Z,82.80
2022-08-17T03:18:24.280Z,82.50
2022-08-17T03:20:56.580Z,82.60
2022-08-17T03:23:25.281Z,82.50
2022-08-17T03:25:53.626Z,82.80
2022-08-17T03:28:21.166Z,82.80
2022-08-17T03:30:47.802Z,83.00
2022-08-17T03:33:14.818Z,83.10
2022-08-17T03:35:41.823Z,82.60
2022-08-17T03:38:11.909Z,82.60
2022-08-17T03:40:56.909Z,82.10
2022-08-17T03:43:27.000Z,81.20
2022-08-17T03:46:28.611Z,80.00
2022-08-17T03:49:18.143Z,81.30
2022-08-17T03:52:03.532Z,76.60
2022-08-17T03:54:48.712Z,75.70
2022-08-17T03:57:16.292Z,74.50
2022-08-17T03:59:43.185Z,74.70
2022-08-17T04:02:15.597Z,73.80
2022-08-17T04:04:42.172Z,73.70
2022-08-17T04:07:09.141Z,74.10
2022-08-17T04:09:36.515Z,73.80
2022-08-17T04:12:04.997Z,74.20
2022-08-17T04:14:52.242Z,75.20
2022-08-17T04:17:21.912Z,74.20
2022-08-17T04:19:48.492Z,73.80
2022-08-17T04:22:30.803Z,73.40
2022-08-17T04:25:07.263Z,74.10
2022-08-17T04:27:34.075Z,74.60
2022-08-17T04:30:01.272Z,74.00
2022-08-17T04:32:59.455Z,74.50
2022-08-17T04:35:18.183Z,74.90
2022-08-17T04:37:45.054Z,74.80
2022-08-17T04:40:30.510Z,75.50
2022-08-17T04:43:04.808Z,76.30
2022-08-17T04:45:32.296Z,76.80
2022-08-17T04:48:00.045Z,77.80
2022-08-17T04:50:27.019Z,78.20
2022-08-17T04:52:53.935Z,78.10
2022-08-17T04:55:21.529Z,78.80
2022-08-17T04:57:48.111Z,78.60
2022-08-17T05:00:14.845Z,78.60
2022-08-17T05:02:49.949Z,78.80
2022-08-17T05:05:21.863Z,78.50
2022-08-17T05:07:51.181Z,78.50
2022-08-17T05:10:17.837Z,78.80
2022-08-17T05:12:44.612Z,77.80
2022-08-17T05:15:12.399Z,77.90
2022-08-17T05:17:39.002Z,77.60
2022-08-17T05:20:05.998Z,78.80
2022-08-17T05:22:32.614Z,78.60
2022-08-17T05:24:59.192Z,78.50
2022-08-17T05:27:29.803Z,78.90
2022-08-17T05:30:02.330Z,77.80
2022-08-17T05:32:38.804Z,77.00
2022-08-17T05:35:07.050Z,76.90
2022-08-17T05:37:33.656Z,77.40
2022-08-17T05:40:00.413Z,77.90
2022-08-17T05:42:27.144Z,78.30
2022-08-17T05:44:57.018Z,78.30
2022-08-17T05:47:23.954Z,76.60
2022-08-17T05:49:50.812Z,76.00
2022-08-17T05:52:23.535Z,76.40
2022-08-17T05:54:56.331Z,77.20
2022-08-17T05:57:32.729Z,78.80
2022-08-17T06:00:07.458Z,79.20
2022-08-17T06:02:47.953Z,78.80
2022-08-17T06:05:29.281Z,77.10
2022-08-17T06:08:00.256Z,76.60
2022-08-17T06:10:31.689Z,77.90
2022-08-17T06:12:58.282Z,78.30
2022-08-17T06:15:37.243Z,78.60
2022-08-17T06:18:05.991Z,79.90
2022-08-17T06:20:38.391Z,81.90
2022-08-17T06:23:07.763Z,84.10
2022-08-17T06:25:45.491Z,87.60
2022-08-17T06:28:14.691Z,89.20
2022-08-17T06:30:59.337Z,90.50
2022-08-17T06:33:32.505Z,91.30
2022-08-17T06:36:05.057Z,92.30
2022-08-17T06:38:44.111Z,92.00
2022-08-17T06:41:19.702Z,90.20
2022-08-17T06:43:50.510Z,90.30
2022-08-17T06:46:29.434Z,90.50
2022-08-17T06:49:11.578Z,91.50
2022-08-17T06:51:40.504Z,91.40
2022-08-17T06:54:11.507Z,91.30
2022-08-17T06:56:53.280Z,90.80
2022-08-17T06:59:55.301Z,91.20
2022-08-17T07:02:50.902Z,90.90
2022-08-17T07:05:20.520Z,90.80
2022-08-17T07:08:03.890Z,90.60
2022-08-17T07:10:38.932Z,90.90
2022-08-17T07:13:20.811Z,91.60
2022-08-17T07:15:52.749Z,91.30
2022-08-17T07:18:23.909Z,91.10
2022-08-17T07:20:54.446Z,91.20
2022-08-17T07:23:26.660Z,91.40
2022-08-17T07:25:53.442Z,92.10
2022-08-17T07:28:22.825Z,92.50
2022-08-17T07:30:54.026Z,91.80
2022-08-17T07:33:23.708Z,93.20
2022-08-17T07:35:50.887Z,94.40
2022-08-17T07:38:24.289Z,93.80
2022-08-17T07:41:02.049Z,94.60
2022-08-17T07:43:34.906Z,95.20
2022-08-17T07:46:23.589Z,95.20
2022-08-17T07:48:52.077Z,95.00
2022-08-17T07:51:21.062Z,95.00
2022-08-17T07:53:47.872Z,95.20
2022-08-17T07:56:34.437Z,95.30
2022-08-17T07:59:09.242Z,94.20
2022-08-17T08:01:39.555Z,94.50
2022-08-17T08:04:49.938Z,94.90
2022-08-17T08:07:16.322Z,95.10
2022-08-17T08:09:44.418Z,94.10
2022-08-17T08:12:24.574Z,93.80
2022-08-17T08:15:01.952Z,92.90
2022-08-17T08:17:31.929Z,92.80
2022-08-17T08:19:59.738Z,91.40
2022-08-17T08:22:34.962Z,91.70
2022-08-17T08:25:10.151Z,90.60
2022-08-17T08:27:45.606Z,90.60
2022-08-17T08:30:15.014Z,90.60
2022-08-17T08:32:53.973Z,91.10
2022-08-17T08:35:31.454Z,91.00
2022-08-17T08:38:17.083Z,91.80
2022-08-17T08:41:01.123Z,92.00
2022-08-17T08:43:30.922Z,91.30
2022-08-17T08:46:03.361Z,90.60
2022-08-17T08:48:53.101Z,90.60
2022-08-17T08:51:42.746Z,90.60
2022-08-17T08:54:17.805Z,90.50
2022-08-17T08:57:22.407Z,91.00
2022-08-17T08:59:54.134Z,87.10
2022-08-17T09:02:24.823Z,90.30
2022-08-17T09:05:13.516Z,85.40
2022-08-17T09:07:42.898Z,90.30
2022-08-17T09:10:20.118Z,90.30
2022-08-17T09:12:47.657Z,90.20
2022-08-17T09:15:27.547Z,89.50
2022-08-17T09:19:03.437Z,87.90
2022-08-17T09:21:14.181Z,90.00
2022-08-17T09:23:59.829Z,89.20
2022-08-17T09:26:31.215Z,90.10
2022-08-17T09:29:01.621Z,89.90
2022-08-17T09:31:41.873Z,88.60
2022-08-17T09:34:18.958Z,89.30
2022-08-17T09:36:50.619Z,90.30
2022-08-17T09:39:24.232Z,89.90
2022-08-17T09:42:14.201Z,90.20
2022-08-17T09:44:40.737Z,89.90
2022-08-17T09:47:22.594Z,90.30
2022-08-17T09:50:03.341Z,90.80
2022-08-17T09:52:30.864Z,90.60
2022-08-17T09:54:59.032Z,90.60
2022-08-17T09:57:35.032Z,90.70
2022-08-17T10:00:10.452Z,90.40
2022-08-17T10:02:37.184Z,90.20
2022-08-17T10:05:07.702Z,89.00
2022-08-17T10:07:41.827Z,89.60
2022-08-17T10:10:14.393Z,88.40
2022-08-17T10:12:54.178Z,88.50
2022-08-17T10:15:37.220Z,88.40
2022-08-17T10:18:22.478Z,88.10
2022-08-17T10:21:29.125Z,86.60
2022-08-17T10:24:35.893Z,83.70
2022-08-17T10:27:08.994Z,81.50
2022-08-17T10:29:48.984Z,80.80
2022-08-17T10:32:32.372Z,80.60
2022-08-17T10:34:59.487Z,79.40
2022-08-17T10:37:28.251Z,80.50
2022-08-17T10:40:07.351Z,81.50
2022-08-17T10:42:36.905Z,82.40
2022-08-17T10:45:26.811Z,82.00
2022-08-17T10:48:05.325Z,82.60
2022-08-17T10:50:48.075Z,78.60
2022-08-17T10:53:33.090Z,79.90
2022-08-17T10:56:12.196Z,76.70
2022-08-17T10:58:51.211Z,74.10
2022-08-17T11:01:18.114Z,76.10
2022-08-17T11:03:53.391Z,74.40
2022-08-17T11:06:26.037Z,75.60
2022-08-17T11:08:52.696Z,77.80
2022-08-17T11:11:43.304Z,78.20
2022-08-17T11:14:25.364Z,78.90
2022-08-17T11:17:11.299Z,79.50
2022-08-17T11:19:57.301Z,80.30
2022-08-17T11:22:48.852Z,80.20
2022-08-17T11:25:31.351Z,76.70
2022-08-17T11:28:06.178Z,78.50
2022-08-17T11:30:48.636Z,78.70
2022-08-17T11:33:38.115Z,79.90
2022-08-17T11:36:06.344Z,76.90
2022-08-17T11:38:52.465Z,73.90
2022-08-17T11:41:28.160Z,76.80
2022-08-17T11:44:15.312Z,74.00
2022-08-17T11:47:15.816Z,76.70
2022-08-17T11:50:15.617Z,78.00
2022-08-17T11:52:44.537Z,74.80
2022-08-17T11:55:37.477Z,77.80
2022-08-17T11:58:24.991Z,77.70
2022-08-17T12:00:59.412Z,77.40
2022-08-17T12:03:32.392Z,78.70
2022-08-17T12:06:17.017Z,80.90
2022-08-17T12:08:47.991Z,82.10
2022-08-17T12:12:01.687Z,80.90
2022-08-17T12:14:20.173Z,81.90
2022-08-17T12:16:59.368Z,83.50
2022-08-17T12:19:29.202Z,83.00
2022-08-17T12:22:02.056Z,83.50
2022-08-17T12:24:29.451Z,82.70
2022-08-17T12:26:58.355Z,82.90
2022-08-17T12:29:38.594Z,81.20
2022-08-17T12:32:07.074Z,80.80
2022-08-17T12:34:35.045Z,80.50
2022-08-17T12:37:03.096Z,81.80
2022-08-17T12:39:34.034Z,80.40
2022-08-17T12:42:02.571Z,77.50
2022-08-17T12:44:31.140Z,78.10
2022-08-17T12:47:01.768Z,72.00
2022-08-17T12:49:29.702Z,63.30
2022-08-17T12:52:05.795Z,61.50
2022-08-17T12:54:35.494Z,63.80
2022-08-17T12:57:07.036Z,59.90
2022-08-17T12:59:33.774Z,58.60
2022-08-17T13:02:00.665Z,55.80
2022-08-17T13:04:29.530Z,55.70
2022-08-17T13:06:59.807Z,53.40
2022-08-17T13:09:35.700Z,53.20
2022-08-17T13:12:07.925Z,54.60
2022-08-17T13:14:35.422Z,56.90
2022-08-17T13:17:08.358Z,53.50
2022-08-17T13:19:48.496Z,56.30
2022-08-17T13:22:15.121Z,55.20
2022-08-17T13:24:49.762Z,54.20
2022-08-17T13:27:20.058Z,52.10
2022-08-17T13:29:51.078Z,50.60
2022-08-17T13:32:33.432Z,50.50
2022-08-17T13:35:15.261Z,50.10
2022-08-17T13:37:57.327Z,46.50
2022-08-17T13:40:37.237Z,45.70
2022-08-17T13:43:04.166Z,46.30
2022-08-17T13:45:39.937Z,47.30
2022-08-17T13:48:11.957Z,44.80
2022-08-17T13:50:40.712Z,46.00
2022-08-17T13:53:22.037Z,47.20
2022-08-17T13:55:50.815Z,46.60
2022-08-17T13:58:26.396Z,46.40
2022-08-17T14:00:53.128Z,47.20
2022-08-17T14:03:20.343Z,47.30
2022-08-17T14:05:47.982Z,47.10
2022-08-17T14:08:15.411Z,48.40
2022-08-17T14:10:43.028Z,48.50
2022-08-17T14:13:09.613Z,49.60
2022-08-17T14:15:55.469Z,51.10
2022-08-17T14:18:55.525Z,50.80
2022-08-17T14:21:09.624Z,52.20
2022-08-17T14:23:37.127Z,52.00
2022-08-17T14:26:04.295Z,53.50
2022-08-17T14:28:30.869Z,53.00
2022-08-17T14:31:00.081Z,54.20
2022-08-17T14:33:27.713Z,54.30
2022-08-17T14:35:54.776Z,54.90
2022-08-17T14:38:21.379Z,54.80
2022-08-17T14:40:48.221Z,54.80
2022-08-17T14:43:15.871Z,54.60
2022-08-17T14:45:42.812Z,55.80
2022-08-17T14:48:09.537Z,55.60
2022-08-17T14:50:38.520Z,55.50
2022-08-17T14:53:06.423Z,55.90
2022-08-17T14:55:33.448Z,55.90
2022-08-17T14:58:00.041Z,55.60
2022-08-17T15:00:27.047Z,56.10
2022-08-17T15:02:54.814Z,56.20
2022-08-17T15:05:22.810Z,54.70
2022-08-17T15:07:49.559Z,55.30
2022-08-17T15:10:17.157Z,55.80
2022-08-17T15:12:44.045Z,55.50
2022-08-17T15:15:12.014Z,55.30
2022-08-17T15:17:45.254Z,55.20
2022-08-17T15:20:15.191Z,55.70
2022-08-17T15:22:42.542Z,55.50
2022-08-17T15:25:11.561Z,55.30
2022-08-17T15:27:38.606Z,55.30
2022-08-17T15:30:07.133Z,55.60
2022-08-17T15:32:35.973Z,54.80
2022-08-17T15:35:03.946Z,55.30
2022-08-17T15:37:32.199Z,55.10
2022-08-17T15:40:00.698Z,55.20
2022-08-17T15:42:27.852Z,55.00
2022-08-17T15:44:55.219Z,54.50
2022-08-17T15:47:22.132Z,54.90
2022-08-17T15:49:49.167Z,54.70
2022-08-17T15:52:25.883Z,54.90
2022-08-17T15:54:57.050Z,55.40
2022-08-17T15:57:24.749Z,55.30
2022-08-17T15:59:58.678Z,55.70
2022-08-17T16:03:15.345Z,55.40
2022-08-17T16:05:17.469Z,55.80
2022-08-17T16:07:46.669Z,55.30
2022-08-17T16:10:18.700Z,55.20
2022-08-17T16:12:46.337Z,56.40
2022-08-17T16:15:13.815Z,55.40
2022-08-17T16:17:41.512Z,55.00
2022-08-17T16:20:19.543Z,55.70
2022-08-17T16:22:48.019Z,55.80
2022-08-17T16:25:17.510Z,55.60
2022-08-17T16:27:44.644Z,55.40
2022-08-17T16:30:16.574Z,55.80
2022-08-17T16:32:44.155Z,56.20
2022-08-17T16:35:12.107Z,56.00
2022-08-17T16:37:40.240Z,56.10
2022-08-17T16:40:11.544Z,56.10
2022-08-17T16:42:39.569Z,55.80
2022-08-17T16:45:09.807Z,56.20
2022-08-17T16:47:36.783Z,56.30
2022-08-17T16:50:07.323Z,55.40
2022-08-17T16:52:34.046Z,56.00
2022-08-17T16:55:02.431Z,56.70
2022-08-17T16:57:29.802Z,56.60
2022-08-17T16:59:56.565Z,56.20
2022-08-17T17:02:24.904Z,56.60
2022-08-17T17:04:57.600Z,57.00
2022-08-17T17:07:50.940Z,56.70
2022-08-17T17:10:26.006Z,57.00
2022-08-17T17:13:03.544Z,56.80
2022-08-17T17:15:35.495Z,57.30
2022-08-17T17:18:07.070Z,57.30
2022-08-17T17:20:42.713Z,57.60
2022-08-17T17:23:14.423Z,58.60
2022-08-17T17:25:48.914Z,58.10
2022-08-17T17:28:18.697Z,58.20
2022-08-17T17:30:45.691Z,58.40
2022-08-17T17:33:19.739Z,58.80
2022-08-17T17:36:00.081Z,58.90
2022-08-17T17:38:33.224Z,60.10
2022-08-17T17:41:13.064Z,60.10
2022-08-17T17:43:41.051Z,60.70
2022-08-17T17:46:28.294Z,61.10
2022-08-17T17:48:56.881Z,60.00
2022-08-17T17:52:06.505Z,60.00
2022-08-17T17:54:18.678Z,61.30
2022-08-17T17:56:50.020Z,62.00
2022-08-17T17:59:26.597Z,62.80
2022-08-17T18:02:11.913Z,62.50
2022-08-17T18:04:42.250Z,63.70
2022-08-17T18:07:25.024Z,64.00
2022-08-17T18:10:04.430Z,64.10
2022-08-17T18:12:54.222Z,64.60
2022-08-17T18:15:35.436Z,65.00
2022-08-17T18:18:22.110Z,64.30
2022-08-17T18:20:53.645Z,65.40
2022-08-17T18:23:27.679Z,65.30
2022-08-17T18:25:55.512Z,65.40
2022-08-17T18:28:25.236Z,65.90
2022-08-17T18:31:06.702Z,65.70
2022-08-17T18:33:33.407Z,66.30
2022-08-17T18:36:01.516Z,67.10
2022-08-17T18:38:37.506Z,67.40
2022-08-17T18:41:26.217Z,67.30
2022-08-17T18:44:04.148Z,68.00
2022-08-17T18:46:35.143Z,68.50
2022-08-17T18:49:20.045Z,68.90
2022-08-17T18:51:46.636Z,70.20
2022-08-17T18:54:18.564Z,70.80
2022-08-17T18:56:52.042Z,70.90
2022-08-17T18:59:18.778Z,70.60
2022-08-17T19:02:05.040Z,70.80
2022-08-17T19:04:36.877Z,71.30
2022-08-17T19:07:05.827Z,71.50
2022-08-17T19:09:35.422Z,70.70
2022-08-17T19:12:03.933Z,71.00
2022-08-17T19:14:30.980Z,71.40
2022-08-17T19:17:04.592Z,71.60
2022-08-17T19:19:38.572Z,71.30
2022-08-17T19:22:11.031Z,71.30
2022-08-17T19:24:47.402Z,72.00
2022-08-17T19:27:17.834Z,71.60
2022-08-17T19:30:10.710Z,71.50
2022-08-17T19:32:38.046Z,71.80
2022-08-17T19:35:06.097Z,70.90
2022-08-17T19:37:35.852Z,70.50
2022-08-17T19:40:29.195Z,70.10
2022-08-17T19:43:14.807Z,68.90
2022-08-17T19:46:01.522Z,68.60
2022-08-17T19:48:46.696Z,68.40
2022-08-17T19:51:17.774Z,68.20
2022-08-17T19:54:04.420Z,68.50
2022-08-17T19:56:31.593Z,68.80
2022-08-17T19:59:12.677Z,68.90
2022-08-17T20:01:42.379Z,69.10
2022-08-17T20:04:32.370Z,69.30
2022-08-17T20:07:28.899Z,69.70
2022-08-17T20:09:55.573Z,69.60
2022-08-17T20:12:26.276Z,69.50
2022-08-17T20:14:59.070Z,70.40
2022-08-17T20:17:31.027Z,70.50
2022-08-17T20:20:04.958Z,70.90
2022-08-17T20:22:46.108Z,69.80
2022-08-17T20:25:35.674Z,69.80
2022-08-17T20:28:17.330Z,70.00
2022-08-17T20:30:45.019Z,70.20
2022-08-17T20:33:29.077Z,70.10
2022-08-17T20:36:05.072Z,70.80
2022-08-17T20:38:52.390Z,70.30
2022-08-17T20:41:22.355Z,70.20
2022-08-17T20:44:09.696Z,69.70
2022-08-17T20:46:36.234Z,69.80
2022-08-17T20:49:08.656Z,70.00
2022-08-17T20:51:40.254Z,70.20
2022-08-17T20:54:16.026Z,70.40
2022-08-17T20:56:43.300Z,70.10
2022-08-17T20:59:39.194Z,70.60
2022-08-17T21:02:18.410Z,70.80
2022-08-17T21:04:52.964Z,71.10
2022-08-17T21:07:41.055Z,71.30
2022-08-17T21:10:24.187Z,71.70
2022-08-17T21:12:58.409Z,72.10
2022-08-17T21:15:43.446Z,72.40
2022-08-17T21:18:10.034Z,72.60
2022-08-17T21:21:01.104Z,72.60
2022-08-17T21:23:40.256Z,72.40
2022-08-17T21:26:13.799Z,72.40
2022-08-17T21:29:01.136Z,72.40
2022-08-17T21:31:28.817Z,72.30
2022-08-17T21:34:14.864Z,71.90
2022-08-17T21:36:47.094Z,72.40
2022-08-17T21:39:15.875Z,72.70
2022-08-17T21:41:47.957Z,72.90
2022-08-17T21:44:17.788Z,73.30
2022-08-17T21:46:46.823Z,73.40
2022-08-17T21:49:16.719Z,73.70
2022-08-17T21:51:56.408Z,74.10
2022-08-17T21:54:31.314Z,75.00
2022-08-17T21:56:59.576Z,74.20
2022-08-17T21:59:35.565Z,74.00
2022-08-17T22:02:04.325Z,74.80
2022-08-17T22:04:32.503Z,75.10
2022-08-17T22:07:01.360Z,75.00
2022-08-17T22:09:27.935Z,75.10
2022-08-17T22:11:57.531Z,75.50
2022-08-17T22:14:27.488Z,75.70
2022-08-17T22:17:35.859Z,76.40
2022-08-17T22:20:14.225Z,76.70
2022-08-17T22:23:08.980Z,77.00
2022-08-17T22:25:37.249Z,77.00
2022-08-17T22:28:05.335Z,77.60
2022-08-17T22:30:39.754Z,77.80
2022-08-17T22:33:25.084Z,77.90
2022-08-17T22:36:07.731Z,77.60
2022-08-17T22:38:34.830Z,77.60
2022-08-17T22:41:22.535Z,77.70
2022-08-17T22:43:49.523Z,76.80
2022-08-17T22:46:20.803Z,76.70
2022-08-17T22:48:50.777Z,77.00
2022-08-17T22:51:19.146Z,76.70
2022-08-17T22:54:06.179Z,76.70
2022-08-17T22:56:51.749Z,77.10
2022-08-17T22:59:37.375Z,77.20
2022-08-17T23:02:12.514Z,76.90
2022-08-17T23:04:41.694Z,76.40
2022-08-17T23:07:08.374Z,76.50
2022-08-17T23:09:35.856Z,77.10
2022-08-17T23:12:05.500Z,76.90
2022-08-17T23:14:36.369Z,77.30
2022-08-17T23:17:03.418Z,78.00
2022-08-17T23:19:32.916Z,78.30
2022-08-17T23:22:01.035Z,78.80
2022-08-17T23:24:29.172Z,79.40
2022-08-17T23:26:57.365Z,79.10
2022-08-17T23:29:25.734Z,79.70
2022-08-17T23:31:52.509Z,80.60
2022-08-17T23:34:19.306Z,81.70
2022-08-17T23:36:50.598Z,82.00
2022-08-17T23:39:27.695Z,82.20
2022-08-17T23:41:56.214Z,83.40
2022-08-17T23:44:23.428Z,83.40
2022-08-17T23:46:51.284Z,84.10
2022-08-17T23:49:19.070Z,84.70
2022-08-17T23:51:46.374Z,84.90
2022-08-17T23:54:19.309Z,83.90
2022-08-17T23:56:46.864Z,84.50
2022-08-17T23:59:14.372Z,84.90
